»·PEaware :: AAL225 KGEG-KSEA

AAL225 :: KGEG-KSEA

FLIGHT INFORMATION

Flight Status: Arrived
Operator:
American Airlines
More flights by this operator :: More flights under this callsign
Pilot: Michael R. (16974)
Aircraft: AIRBUS A320
(A320)
More flights by this aircraft type
Origin: KGEG Spokane Intl
United States
Destination: KSEA Seattle-Tacoma Intl
United States
More flights between these airports :: More routes between these airports
Route: TEMPL GLASR1
File this flight plan on PilotEdge
Remarks:
Altitude:
(Current/Filed)
24,000ft
Speed:
(Current/Filed)
458kts
Departed: 08-Jul-18 11:48 AM
Arrived: 08-Jul-18 12:37 PM
Distance/Time
Traveled:
193nm/0:49
Distance/Time
To Go:
Arrived

Flight Plot

Page will automatically refresh every two minutes.

Flight plan parsing failed; only flown route is shown


Map Options




Map Legend


Flown Route
Filed Route
Departure Airport
Arrival Airport
Navaid (VOR, NDB)
Fix

Horizontal Profiles

Position Reports

Time Latitude Longitude Heading Altitude Ground
Speed
08-Jul-18 11:23 47.624224 -117.536581 81 2393ft 0kts
08-Jul-18 11:24 47.624224 -117.536581 81 2393ft 0kts
08-Jul-18 11:25 47.624224 -117.536581 81 2393ft 0kts
08-Jul-18 11:26 47.624224 -117.536581 81 2393ft 0kts
08-Jul-18 11:27 47.624224 -117.536581 81 2393ft 0kts
08-Jul-18 11:28 47.624224 -117.536581 81 2393ft 0kts
08-Jul-18 11:29 47.624224 -117.536581 81 2393ft 0kts
08-Jul-18 11:30 47.624224 -117.536581 81 2393ft 0kts
08-Jul-18 11:31 47.624224 -117.536581 81 2393ft 0kts
08-Jul-18 11:32 47.624224 -117.536581 81 2393ft 0kts
08-Jul-18 11:33 47.624224 -117.536581 81 2393ft 0kts
08-Jul-18 11:34 47.624224 -117.536581 81 2393ft 0kts
08-Jul-18 11:35 47.624224 -117.536582 81 2393ft 0kts
08-Jul-18 11:36 47.623940 -117.537302 85 2393ft 2kts
08-Jul-18 11:37 47.623713 -117.537115 135 2393ft 0kts
08-Jul-18 11:38 47.623713 -117.537114 135 2393ft 0kts
08-Jul-18 11:39 47.623713 -117.537114 135 2393ft 0kts
08-Jul-18 11:40 47.623713 -117.537114 135 2393ft 0kts
08-Jul-18 11:41 47.623400 -117.536661 135 2393ft 8kts
08-Jul-18 11:42 47.623192 -117.535676 114 2393ft 0kts
08-Jul-18 11:43 47.621733 -117.536574 224 2393ft 22kts
08-Jul-18 11:44 47.616796 -117.543989 225 2393ft 28kts
08-Jul-18 11:45 47.611875 -117.551381 223 2393ft 2kts
08-Jul-18 11:46 47.610894 -117.551014 132 2393ft 0kts
08-Jul-18 11:47 47.610894 -117.551014 132 2393ft 0kts
08-Jul-18 11:48 47.610655 -117.549234 43 2393ft 0kts
08-Jul-18 11:49 47.613247 -117.545347 44 2393ft 106kts
08-Jul-18 11:50 47.653614 -117.489481 32 5462ft 241kts
08-Jul-18 11:51 47.715462 -117.424398 33 8949ft 295kts
08-Jul-18 11:52 47.787292 -117.349854 22 11778ft 354kts
08-Jul-18 11:53 47.878024 -117.383194 305 12125ft 380kts
08-Jul-18 11:54 47.887065 -117.534764 262 14582ft 382kts
08-Jul-18 11:55 47.875769 -117.685716 261 17351ft 387kts
08-Jul-18 11:56 47.864089 -117.843553 260 19814ft 393kts
08-Jul-18 11:57 47.852285 -118.000719 260 21939ft 399kts
08-Jul-18 11:58 47.839669 -118.165639 260 23877ft 405kts
08-Jul-18 11:59 47.826563 -118.333650 260 24189ft 423kts
08-Jul-18 12:00 47.812692 -118.508260 260 24188ft 426kts
08-Jul-18 12:01 47.799164 -118.674995 259 24167ft 426kts
08-Jul-18 12:02 47.785050 -118.845957 259 24146ft 426kts
08-Jul-18 12:03 47.770236 -119.022167 259 24147ft 431kts
08-Jul-18 12:04 47.755107 -119.198751 258 24142ft 432kts
08-Jul-18 12:05 47.739734 -119.374895 258 24130ft 433kts
08-Jul-18 12:06 47.723492 -119.552139 258 24130ft 433kts
08-Jul-18 12:07 47.708162 -119.719630 258 24130ft 432kts
08-Jul-18 12:08 47.720255 -119.894594 284 24136ft 447kts
08-Jul-18 12:09 47.763282 -120.067380 284 24140ft 447kts
08-Jul-18 12:10 47.788215 -120.242173 271 24138ft 438kts
08-Jul-18 12:11 47.801276 -120.422093 271 24139ft 438kts
08-Jul-18 12:12 47.814088 -120.601856 271 24140ft 438kts
08-Jul-18 12:13 47.825262 -120.762212 270 23523ft 417kts
08-Jul-18 12:14 47.835676 -120.914574 270 22232ft 412kts
08-Jul-18 12:15 47.846715 -121.079355 271 19600ft 408kts
08-Jul-18 12:16 47.856721 -121.232041 271 16918ft 343kts
08-Jul-18 12:17 47.865329 -121.366922 272 14407ft 333kts
08-Jul-18 12:18 47.873552 -121.496452 272 12780ft 314kts
08-Jul-18 12:19 47.880092 -121.602754 272 12330ft 295kts
08-Jul-18 12:20 47.887129 -121.715526 272 12052ft 296kts
08-Jul-18 12:21 47.876402 -121.815860 213 12454ft 290kts
08-Jul-18 12:22 47.801537 -121.850017 194 12044ft 290kts
08-Jul-18 12:23 47.734627 -121.908911 221 12032ft 289kts
08-Jul-18 12:24 47.676189 -121.987558 220 12022ft 290kts
08-Jul-18 12:25 47.621156 -122.061401 220 12023ft 290kts
08-Jul-18 12:26 47.572510 -122.126510 221 11590ft 287kts
08-Jul-18 12:27 47.507482 -122.160919 180 11023ft 289kts
08-Jul-18 12:28 47.430294 -122.158997 179 10515ft 286kts
08-Jul-18 12:29 47.353028 -122.156470 179 8785ft 287kts
08-Jul-18 12:30 47.274162 -122.153513 179 6421ft 281kts
08-Jul-18 12:31 47.217438 -122.194961 261 4521ft 246kts
08-Jul-18 12:32 47.222489 -122.288451 277 3024ft 239kts
08-Jul-18 12:33 47.271518 -122.319001 8 3257ft 235kts
08-Jul-18 12:34 47.327759 -122.312309 1 2127ft 161kts
08-Jul-18 12:35 47.365496 -122.307993 358 1593ft 130kts
08-Jul-18 12:36 47.400889 -122.310166 341 1108ft 130kts
08-Jul-18 12:37 47.436214 -122.311171 346 508ft 128kts
08-Jul-18 12:38 47.451814 -122.309117 38 442ft 10kts
08-Jul-18 12:39 47.448594 -122.306236 169 442ft 31kts
08-Jul-18 12:40 47.445578 -122.303140 271 442ft 0kts
08-Jul-18 12:41 47.445578 -122.303140 271 442ft 0kts

Navigation Log

Ident Type
Flight plan parsing failed, navigation log unavailable